sensor_id;sensor_type;location;lat;lon;timestamp;P1;durP1;ratioP1;P2;durP2;ratioP2
55025;SDS011;40925;45.666;18.994;2024-02-26T00:01:33;121.15;;;52.00;;
55025;SDS011;40925;45.666;18.994;2024-02-26T00:03:59;155.05;;;57.38;;
55025;SDS011;40925;45.666;18.994;2024-02-26T00:06:25;164.23;;;55.50;;
55025;SDS011;40925;45.666;18.994;2024-02-26T00:08:51;163.00;;;58.83;;
55025;SDS011;40925;45.666;18.994;2024-02-26T00:11:16;238.52;;;67.13;;
55025;SDS011;40925;45.666;18.994;2024-02-26T00:13:42;174.68;;;62.58;;
55025;SDS011;40925;45.666;18.994;2024-02-26T00:16:08;183.30;;;67.97;;
55025;SDS011;40925;45.666;18.994;2024-02-26T00:18:33;142.35;;;60.88;;
55025;SDS011;40925;45.666;18.994;2024-02-26T00:20:59;159.80;;;65.72;;
55025;SDS011;40925;45.666;18.994;2024-02-26T00:23:25;228.40;;;68.22;;
55025;SDS011;40925;45.666;18.994;2024-02-26T00:25:52;209.23;;;65.65;;
55025;SDS011;40925;45.666;18.994;2024-02-26T00:28:18;236.93;;;74.45;;
55025;SDS011;40925;45.666;18.994;2024-02-26T00:30:45;326.65;;;78.70;;
55025;SDS011;40925;45.666;18.994;2024-02-26T00:33:11;276.05;;;71.72;;
55025;SDS011;40925;45.666;18.994;2024-02-26T00:35:36;237.40;;;65.13;;
55025;SDS011;40925;45.666;18.994;2024-02-26T00:38:02;183.55;;;63.75;;
55025;SDS011;40925;45.666;18.994;2024-02-26T00:40:29;231.93;;;68.68;;
55025;SDS011;40925;45.666;18.994;2024-02-26T00:42:55;192.93;;;63.78;;
55025;SDS011;40925;45.666;18.994;2024-02-26T00:45:21;144.48;;;60.67;;
55025;SDS011;40925;45.666;18.994;2024-02-26T00:47:47;326.88;;;69.18;;
55025;SDS011;40925;45.666;18.994;2024-02-26T00:50:14;344.42;;;73.30;;
55025;SDS011;40925;45.666;18.994;2024-02-26T00:52:40;294.08;;;71.63;;
55025;SDS011;40925;45.666;18.994;2024-02-26T00:55:06;151.60;;;64.35;;
55025;SDS011;40925;45.666;18.994;2024-02-26T00:57:32;187.63;;;66.47;;
55025;SDS011;40925;45.666;18.994;2024-02-26T00:59:58;135.73;;;63.50;;
55025;SDS011;40925;45.666;18.994;2024-02-26T01:02:24;170.95;;;64.07;;
55025;SDS011;40925;45.666;18.994;2024-02-26T01:04:50;116.90;;;57.38;;
55025;SDS011;40925;45.666;18.994;2024-02-26T01:07:16;135.63;;;59.13;;
55025;SDS011;40925;45.666;18.994;2024-02-26T01:09:42;125.60;;;59.38;;
55025;SDS011;40925;45.666;18.994;2024-02-26T01:12:07;110.32;;;54.13;;
55025;SDS011;40925;45.666;18.994;2024-02-26T01:14:33;128.20;;;62.50;;
55025;SDS011;40925;45.666;18.994;2024-02-26T01:16:59;108.00;;;57.00;;
55025;SDS011;40925;45.666;18.994;2024-02-26T01:19:25;109.93;;;58.20;;
55025;SDS011;40925;45.666;18.994;2024-02-26T01:21:50;113.10;;;57.65;;
55025;SDS011;40925;45.666;18.994;2024-02-26T01:24:16;124.07;;;56.45;;
55025;SDS011;40925;45.666;18.994;2024-02-26T01:26:42;111.85;;;56.63;;
55025;SDS011;40925;45.666;18.994;2024-02-26T01:29:08;117.75;;;57.00;;
55025;SDS011;40925;45.666;18.994;2024-02-26T01:31:33;102.57;;;52.92;;
55025;SDS011;40925;45.666;18.994;2024-02-26T01:34:00;97.38;;;52.45;;
55025;SDS011;40925;45.666;18.994;2024-02-26T01:36:29;95.97;;;52.75;;
55025;SDS011;40925;45.666;18.994;2024-02-26T01:38:54;94.38;;;52.15;;
55025;SDS011;40925;45.666;18.994;2024-02-26T01:41:20;89.50;;;50.25;;
55025;SDS011;40925;45.666;18.994;2024-02-26T01:43:46;97.22;;;51.03;;
55025;SDS011;40925;45.666;18.994;2024-02-26T01:46:12;103.32;;;52.22;;
55025;SDS011;40925;45.666;18.994;2024-02-26T01:48:43;99.18;;;51.85;;
55025;SDS011;40925;45.666;18.994;2024-02-26T01:51:10;98.70;;;51.75;;
55025;SDS011;40925;45.666;18.994;2024-02-26T01:53:38;130.85;;;54.05;;
55025;SDS011;40925;45.666;18.994;2024-02-26T01:56:04;113.78;;;50.90;;
55025;SDS011;40925;45.666;18.994;2024-02-26T01:58:30;104.32;;;54.13;;
55025;SDS011;40925;45.666;18.994;2024-02-26T02:00:56;133.82;;;55.78;;
55025;SDS011;40925;45.666;18.994;2024-02-26T02:03:23;105.63;;;53.10;;
55025;SDS011;40925;45.666;18.994;2024-02-26T02:05:50;92.75;;;50.58;;
55025;SDS011;40925;45.666;18.994;2024-02-26T02:08:15;86.60;;;49.30;;
55025;SDS011;40925;45.666;18.994;2024-02-26T02:10:41;85.38;;;48.97;;
55025;SDS011;40925;45.666;18.994;2024-02-26T02:13:07;84.22;;;49.05;;
55025;SDS011;40925;45.666;18.994;2024-02-26T02:15:34;93.45;;;51.17;;
55025;SDS011;40925;45.666;18.994;2024-02-26T02:17:59;88.20;;;49.22;;
55025;SDS011;40925;45.666;18.994;2024-02-26T02:20:35;80.72;;;47.58;;
55025;SDS011;40925;45.666;18.994;2024-02-26T02:23:01;83.05;;;48.20;;
55025;SDS011;40925;45.666;18.994;2024-02-26T02:25:27;74.75;;;45.47;;
55025;SDS011;40925;45.666;18.994;2024-02-26T02:27:53;84.65;;;48.00;;
55025;SDS011;40925;45.666;18.994;2024-02-26T02:30:29;80.35;;;47.08;;
55025;SDS011;40925;45.666;18.994;2024-02-26T02:32:58;73.53;;;44.72;;
55025;SDS011;40925;45.666;18.994;2024-02-26T02:35:24;78.60;;;45.22;;
55025;SDS011;40925;45.666;18.994;2024-02-26T02:37:53;79.22;;;46.58;;
55025;SDS011;40925;45.666;18.994;2024-02-26T02:40:19;78.78;;;46.67;;
55025;SDS011;40925;45.666;18.994;2024-02-26T02:42:45;80.10;;;47.70;;
55025;SDS011;40925;45.666;18.994;2024-02-26T02:45:10;83.93;;;48.20;;
55025;SDS011;40925;45.666;18.994;2024-02-26T02:47:36;95.88;;;51.40;;
55025;SDS011;40925;45.666;18.994;2024-02-26T02:50:05;98.00;;;51.50;;
55025;SDS011;40925;45.666;18.994;2024-02-26T02:52:31;106.60;;;52.78;;
55025;SDS011;40925;45.666;18.994;2024-02-26T02:54:57;103.68;;;52.15;;
55025;SDS011;40925;45.666;18.994;2024-02-26T02:57:23;110.47;;;53.65;;
55025;SDS011;40925;45.666;18.994;2024-02-26T02:59:49;171.50;;;53.60;;
55025;SDS011;40925;45.666;18.994;2024-02-26T03:02:15;480.98;;;63.15;;
55025;SDS011;40925;45.666;18.994;2024-02-26T03:04:40;481.95;;;63.28;;
55025;SDS011;40925;45.666;18.994;2024-02-26T03:07:06;443.88;;;64.32;;
55025;SDS011;40925;45.666;18.994;2024-02-26T03:09:31;304.90;;;60.90;;
55025;SDS011;40925;45.666;18.994;2024-02-26T03:11:57;289.92;;;61.25;;
55025;SDS011;40925;45.666;18.994;2024-02-26T03:14:23;219.38;;;59.22;;
55025;SDS011;40925;45.666;18.994;2024-02-26T03:16:52;179.02;;;58.75;;
55025;SDS011;40925;45.666;18.994;2024-02-26T03:19:18;300.95;;;64.72;;
55025;SDS011;40925;45.666;18.994;2024-02-26T03:21:44;193.20;;;58.35;;
55025;SDS011;40925;45.666;18.994;2024-02-26T03:24:10;212.48;;;60.92;;
55025;SDS011;40925;45.666;18.994;2024-02-26T03:26:37;182.63;;;55.67;;
55025;SDS011;40925;45.666;18.994;2024-02-26T03:29:03;179.90;;;53.53;;
55025;SDS011;40925;45.666;18.994;2024-02-26T03:31:29;154.20;;;54.58;;
55025;SDS011;40925;45.666;18.994;2024-02-26T03:33:55;144.93;;;55.15;;
55025;SDS011;40925;45.666;18.994;2024-02-26T03:36:21;108.07;;;51.85;;
55025;SDS011;40925;45.666;18.994;2024-02-26T03:38:48;113.35;;;53.25;;
55025;SDS011;40925;45.666;18.994;2024-02-26T03:41:14;148.75;;;57.25;;
55025;SDS011;40925;45.666;18.994;2024-02-26T03:43:40;145.30;;;56.17;;
55025;SDS011;40925;45.666;18.994;2024-02-26T03:46:09;142.32;;;55.47;;
55025;SDS011;40925;45.666;18.994;2024-02-26T03:48:36;116.00;;;51.30;;
55025;SDS011;40925;45.666;18.994;2024-02-26T03:51:03;102.82;;;50.33;;
55025;SDS011;40925;45.666;18.994;2024-02-26T03:53:29;104.28;;;50.67;;
55025;SDS011;40925;45.666;18.994;2024-02-26T03:55:55;95.45;;;49.08;;
55025;SDS011;40925;45.666;18.994;2024-02-26T03:58:21;98.75;;;50.20;;
55025;SDS011;40925;45.666;18.994;2024-02-26T04:00:47;95.43;;;47.80;;
55025;SDS011;40925;45.666;18.994;2024-02-26T04:03:13;89.70;;;46.83;;
55025;SDS011;40925;45.666;18.994;2024-02-26T04:05:39;80.82;;;44.58;;
55025;SDS011;40925;45.666;18.994;2024-02-26T04:08:05;83.35;;;45.35;;
55025;SDS011;40925;45.666;18.994;2024-02-26T04:10:33;86.18;;;46.72;;
55025;SDS011;40925;45.666;18.994;2024-02-26T04:13:07;80.53;;;44.63;;
55025;SDS011;40925;45.666;18.994;2024-02-26T04:15:33;85.38;;;46.63;;
55025;SDS011;40925;45.666;18.994;2024-02-26T04:17:59;75.93;;;44.45;;
55025;SDS011;40925;45.666;18.994;2024-02-26T04:20:25;75.82;;;44.05;;
55025;SDS011;40925;45.666;18.994;2024-02-26T04:22:51;82.55;;;45.13;;
55025;SDS011;40925;45.666;18.994;2024-02-26T04:25:16;73.38;;;42.05;;
55025;SDS011;40925;45.666;18.994;2024-02-26T04:27:42;73.40;;;42.47;;
55025;SDS011;40925;45.666;18.994;2024-02-26T04:30:08;70.68;;;42.95;;
55025;SDS011;40925;45.666;18.994;2024-02-26T04:32:34;66.53;;;41.85;;
55025;SDS011;40925;45.666;18.994;2024-02-26T04:35:00;63.83;;;39.65;;
55025;SDS011;40925;45.666;18.994;2024-02-26T04:37:27;63.00;;;39.78;;
55025;SDS011;40925;45.666;18.994;2024-02-26T04:39:57;66.75;;;40.60;;
55025;SDS011;40925;45.666;18.994;2024-02-26T04:42:24;62.13;;;39.05;;
55025;SDS011;40925;45.666;18.994;2024-02-26T04:44:49;59.17;;;37.92;;
55025;SDS011;40925;45.666;18.994;2024-02-26T04:47:15;63.35;;;40.45;;
55025;SDS011;40925;45.666;18.994;2024-02-26T04:49:40;76.47;;;48.92;;
55025;SDS011;40925;45.666;18.994;2024-02-26T04:52:06;64.70;;;41.88;;
55025;SDS011;40925;45.666;18.994;2024-02-26T04:54:32;68.00;;;43.83;;
55025;SDS011;40925;45.666;18.994;2024-02-26T04:56:58;61.17;;;39.33;;
55025;SDS011;40925;45.666;18.994;2024-02-26T04:59:23;66.55;;;41.05;;
55025;SDS011;40925;45.666;18.994;2024-02-26T05:01:49;68.95;;;41.17;;
55025;SDS011;40925;45.666;18.994;2024-02-26T05:04:16;68.38;;;42.05;;
55025;SDS011;40925;45.666;18.994;2024-02-26T05:06:42;73.88;;;43.88;;
55025;SDS011;40925;45.666;18.994;2024-02-26T05:09:08;78.43;;;46.35;;
55025;SDS011;40925;45.666;18.994;2024-02-26T05:11:33;74.68;;;44.88;;
55025;SDS011;40925;45.666;18.994;2024-02-26T05:14:00;83.40;;;47.83;;
55025;SDS011;40925;45.666;18.994;2024-02-26T05:16:26;89.93;;;52.90;;
55025;SDS011;40925;45.666;18.994;2024-02-26T05:18:52;93.25;;;54.25;;
55025;SDS011;40925;45.666;18.994;2024-02-26T05:21:18;96.47;;;55.78;;
55025;SDS011;40925;45.666;18.994;2024-02-26T05:23:44;90.88;;;54.00;;
55025;SDS011;40925;45.666;18.994;2024-02-26T05:26:10;94.68;;;57.55;;
55025;SDS011;40925;45.666;18.994;2024-02-26T05:28:36;91.13;;;53.50;;
55025;SDS011;40925;45.666;18.994;2024-02-26T05:31:04;95.40;;;54.83;;
55025;SDS011;40925;45.666;18.994;2024-02-26T05:33:30;111.25;;;64.40;;
55025;SDS011;40925;45.666;18.994;2024-02-26T05:35:56;107.82;;;64.70;;
55025;SDS011;40925;45.666;18.994;2024-02-26T05:38:22;110.00;;;65.88;;
55025;SDS011;40925;45.666;18.994;2024-02-26T05:40:47;98.80;;;59.85;;
55025;SDS011;40925;45.666;18.994;2024-02-26T05:43:13;92.97;;;54.53;;
55025;SDS011;40925;45.666;18.994;2024-02-26T05:45:42;91.00;;;52.00;;
55025;SDS011;40925;45.666;18.994;2024-02-26T05:48:07;77.50;;;47.70;;
55025;SDS011;40925;45.666;18.994;2024-02-26T05:50:33;73.00;;;43.47;;
55025;SDS011;40925;45.666;18.994;2024-02-26T05:52:58;71.10;;;42.55;;
55025;SDS011;40925;45.666;18.994;2024-02-26T05:55:24;83.35;;;52.60;;
55025;SDS011;40925;45.666;18.994;2024-02-26T05:57:50;88.47;;;51.85;;
55025;SDS011;40925;45.666;18.994;2024-02-26T06:00:16;84.47;;;52.05;;
55025;SDS011;40925;45.666;18.994;2024-02-26T06:02:42;83.03;;;50.72;;
55025;SDS011;40925;45.666;18.994;2024-02-26T06:05:08;92.43;;;55.03;;
55025;SDS011;40925;45.666;18.994;2024-02-26T06:07:34;113.97;;;65.75;;
55025;SDS011;40925;45.666;18.994;2024-02-26T06:10:00;105.93;;;64.38;;
55025;SDS011;40925;45.666;18.994;2024-02-26T06:12:27;105.68;;;63.15;;
55025;SDS011;40925;45.666;18.994;2024-02-26T06:14:53;101.45;;;59.50;;
55025;SDS011;40925;45.666;18.994;2024-02-26T06:17:19;103.22;;;59.03;;
55025;SDS011;40925;45.666;18.994;2024-02-26T06:19:45;103.85;;;59.25;;
55025;SDS011;40925;45.666;18.994;2024-02-26T06:22:11;96.28;;;55.85;;
55025;SDS011;40925;45.666;18.994;2024-02-26T06:24:36;97.70;;;57.75;;
55025;SDS011;40925;45.666;18.994;2024-02-26T06:27:02;91.93;;;54.80;;
55025;SDS011;40925;45.666;18.994;2024-02-26T06:29:28;92.40;;;54.40;;
55025;SDS011;40925;45.666;18.994;2024-02-26T06:31:54;89.38;;;54.03;;
55025;SDS011;40925;45.666;18.994;2024-02-26T06:34:20;89.80;;;55.20;;
55025;SDS011;40925;45.666;18.994;2024-02-26T06:36:46;84.47;;;52.35;;
55025;SDS011;40925;45.666;18.994;2024-02-26T06:39:12;84.18;;;51.65;;
55025;SDS011;40925;45.666;18.994;2024-02-26T06:41:38;72.80;;;45.28;;
55025;SDS011;40925;45.666;18.994;2024-02-26T06:44:04;77.53;;;45.40;;
55025;SDS011;40925;45.666;18.994;2024-02-26T06:46:31;72.15;;;43.40;;
55025;SDS011;40925;45.666;18.994;2024-02-26T06:48:56;74.53;;;43.92;;
55025;SDS011;40925;45.666;18.994;2024-02-26T06:51:22;76.97;;;44.95;;
55025;SDS011;40925;45.666;18.994;2024-02-26T06:53:48;74.00;;;44.22;;
55025;SDS011;40925;45.666;18.994;2024-02-26T06:56:14;75.68;;;47.45;;
55025;SDS011;40925;45.666;18.994;2024-02-26T06:58:40;80.93;;;50.67;;
55025;SDS011;40925;45.666;18.994;2024-02-26T07:01:06;85.20;;;53.00;;
55025;SDS011;40925;45.666;18.994;2024-02-26T07:03:33;121.47;;;73.32;;
55025;SDS011;40925;45.666;18.994;2024-02-26T07:05:59;107.20;;;64.50;;
55025;SDS011;40925;45.666;18.994;2024-02-26T07:08:25;106.68;;;65.00;;
55025;SDS011;40925;45.666;18.994;2024-02-26T07:10:51;95.22;;;57.85;;
55025;SDS011;40925;45.666;18.994;2024-02-26T07:13:17;99.68;;;62.58;;
55025;SDS011;40925;45.666;18.994;2024-02-26T07:15:42;96.70;;;57.95;;
55025;SDS011;40925;45.666;18.994;2024-02-26T07:18:08;88.35;;;54.95;;
55025;SDS011;40925;45.666;18.994;2024-02-26T07:20:35;81.60;;;51.72;;
55025;SDS011;40925;45.666;18.994;2024-02-26T07:23:01;84.75;;;54.55;;
55025;SDS011;40925;45.666;18.994;2024-02-26T07:25:27;81.20;;;52.05;;
55025;SDS011;40925;45.666;18.994;2024-02-26T07:27:52;80.95;;;53.45;;
55025;SDS011;40925;45.666;18.994;2024-02-26T07:30:18;83.28;;;54.13;;
55025;SDS011;40925;45.666;18.994;2024-02-26T07:32:44;82.43;;;52.25;;
55025;SDS011;40925;45.666;18.994;2024-02-26T07:35:09;72.57;;;47.20;;
55025;SDS011;40925;45.666;18.994;2024-02-26T07:37:35;76.55;;;50.63;;
55025;SDS011;40925;45.666;18.994;2024-02-26T07:40:01;77.03;;;50.22;;
55025;SDS011;40925;45.666;18.994;2024-02-26T07:42:27;67.80;;;43.33;;
55025;SDS011;40925;45.666;18.994;2024-02-26T07:44:52;68.00;;;42.28;;
55025;SDS011;40925;45.666;18.994;2024-02-26T07:47:18;81.20;;;50.00;;
55025;SDS011;40925;45.666;18.994;2024-02-26T07:49:44;78.80;;;45.50;;
55025;SDS011;40925;45.666;18.994;2024-02-26T07:52:10;70.95;;;43.70;;
55025;SDS011;40925;45.666;18.994;2024-02-26T07:54:35;54.50;;;35.00;;
55025;SDS011;40925;45.666;18.994;2024-02-26T07:57:01;42.10;;;26.17;;
55025;SDS011;40925;45.666;18.994;2024-02-26T07:59:30;118.88;;;63.83;;
55025;SDS011;40925;45.666;18.994;2024-02-26T08:01:56;64.78;;;40.00;;
55025;SDS011;40925;45.666;18.994;2024-02-26T08:04:22;57.00;;;33.08;;
55025;SDS011;40925;45.666;18.994;2024-02-26T08:06:47;45.80;;;28.17;;
55025;SDS011;40925;45.666;18.994;2024-02-26T08:09:13;37.30;;;23.27;;
55025;SDS011;40925;45.666;18.994;2024-02-26T08:11:39;77.28;;;44.80;;
55025;SDS011;40925;45.666;18.994;2024-02-26T08:14:05;32.38;;;20.33;;
55025;SDS011;40925;45.666;18.994;2024-02-26T08:16:31;67.18;;;39.50;;
55025;SDS011;40925;45.666;18.994;2024-02-26T08:18:58;34.65;;;22.88;;
55025;SDS011;40925;45.666;18.994;2024-02-26T08:21:24;30.33;;;20.65;;
55025;SDS011;40925;45.666;18.994;2024-02-26T08:23:49;24.98;;;16.70;;
55025;SDS011;40925;45.666;18.994;2024-02-26T08:26:15;33.03;;;20.67;;
55025;SDS011;40925;45.666;18.994;2024-02-26T08:28:41;30.58;;;19.60;;
55025;SDS011;40925;45.666;18.994;2024-02-26T08:31:06;33.17;;;21.20;;
55025;SDS011;40925;45.666;18.994;2024-02-26T08:33:33;48.30;;;27.48;;
55025;SDS011;40925;45.666;18.994;2024-02-26T08:36:03;38.00;;;23.05;;
55025;SDS011;40925;45.666;18.994;2024-02-26T08:38:30;29.45;;;19.50;;
55025;SDS011;40925;45.666;18.994;2024-02-26T08:40:56;29.20;;;19.10;;
55025;SDS011;40925;45.666;18.994;2024-02-26T08:43:21;21.50;;;13.88;;
55025;SDS011;40925;45.666;18.994;2024-02-26T08:45:47;39.60;;;22.48;;
55025;SDS011;40925;45.666;18.994;2024-02-26T08:48:13;31.33;;;18.13;;
55025;SDS011;40925;45.666;18.994;2024-02-26T08:50:38;35.70;;;20.05;;
55025;SDS011;40925;45.666;18.994;2024-02-26T08:53:04;27.48;;;17.20;;
55025;SDS011;40925;45.666;18.994;2024-02-26T08:55:30;28.77;;;18.88;;
55025;SDS011;40925;45.666;18.994;2024-02-26T08:57:56;24.50;;;15.32;;
55025;SDS011;40925;45.666;18.994;2024-02-26T09:00:22;32.70;;;20.98;;
55025;SDS011;40925;45.666;18.994;2024-02-26T09:02:48;41.58;;;26.08;;
55025;SDS011;40925;45.666;18.994;2024-02-26T09:05:14;27.75;;;18.60;;
55025;SDS011;40925;45.666;18.994;2024-02-26T09:07:40;64.10;;;35.03;;
55025;SDS011;40925;45.666;18.994;2024-02-26T09:10:08;28.70;;;18.70;;
55025;SDS011;40925;45.666;18.994;2024-02-26T09:12:35;40.03;;;22.85;;
55025;SDS011;40925;45.666;18.994;2024-02-26T09:15:01;40.97;;;25.08;;
55025;SDS011;40925;45.666;18.994;2024-02-26T09:17:27;31.00;;;19.13;;
55025;SDS011;40925;45.666;18.994;2024-02-26T09:19:53;38.88;;;24.40;;
55025;SDS011;40925;45.666;18.994;2024-02-26T09:22:19;34.13;;;21.55;;
55025;SDS011;40925;45.666;18.994;2024-02-26T09:24:46;30.65;;;21.17;;
55025;SDS011;40925;45.666;18.994;2024-02-26T09:27:12;34.47;;;22.92;;
55025;SDS011;40925;45.666;18.994;2024-02-26T09:29:38;31.08;;;21.60;;
55025;SDS011;40925;45.666;18.994;2024-02-26T09:32:04;34.83;;;24.63;;
55025;SDS011;40925;45.666;18.994;2024-02-26T09:34:30;34.10;;;21.95;;
55025;SDS011;40925;45.666;18.994;2024-02-26T09:36:56;38.67;;;23.58;;
55025;SDS011;40925;45.666;18.994;2024-02-26T09:39:22;39.33;;;27.20;;
55025;SDS011;40925;45.666;18.994;2024-02-26T09:41:48;36.72;;;25.58;;
55025;SDS011;40925;45.666;18.994;2024-02-26T09:44:18;36.88;;;25.40;;
55025;SDS011;40925;45.666;18.994;2024-02-26T09:46:48;39.60;;;27.08;;
55025;SDS011;40925;45.666;18.994;2024-02-26T09:49:17;64.70;;;42.38;;
55025;SDS011;40925;45.666;18.994;2024-02-26T09:51:44;39.75;;;26.95;;
55025;SDS011;40925;45.666;18.994;2024-02-26T09:54:12;71.03;;;44.60;;
55025;SDS011;40925;45.666;18.994;2024-02-26T09:56:41;55.97;;;32.08;;
55025;SDS011;40925;45.666;18.994;2024-02-26T09:59:10;39.67;;;27.83;;
55025;SDS011;40925;45.666;18.994;2024-02-26T10:01:39;41.40;;;28.55;;
55025;SDS011;40925;45.666;18.994;2024-02-26T10:04:07;43.72;;;28.95;;
55025;SDS011;40925;45.666;18.994;2024-02-26T10:06:36;43.38;;;29.75;;
55025;SDS011;40925;45.666;18.994;2024-02-26T10:09:02;45.45;;;31.05;;
55025;SDS011;40925;45.666;18.994;2024-02-26T10:11:31;41.97;;;29.20;;
55025;SDS011;40925;45.666;18.994;2024-02-26T10:13:57;41.58;;;27.63;;
55025;SDS011;40925;45.666;18.994;2024-02-26T10:16:24;38.15;;;27.15;;
55025;SDS011;40925;45.666;18.994;2024-02-26T10:18:50;45.90;;;31.20;;
55025;SDS011;40925;45.666;18.994;2024-02-26T10:21:20;63.15;;;40.47;;
55025;SDS011;40925;45.666;18.994;2024-02-26T10:23:47;52.30;;;32.97;;
55025;SDS011;40925;45.666;18.994;2024-02-26T10:26:14;66.32;;;41.35;;
55025;SDS011;40925;45.666;18.994;2024-02-26T10:28:43;48.30;;;31.02;;
55025;SDS011;40925;45.666;18.994;2024-02-26T10:31:10;53.08;;;34.60;;
55025;SDS011;40925;45.666;18.994;2024-02-26T10:33:37;43.70;;;30.42;;
55025;SDS011;40925;45.666;18.994;2024-02-26T10:36:07;53.70;;;33.92;;
55025;SDS011;40925;45.666;18.994;2024-02-26T10:38:33;78.07;;;45.95;;
55025;SDS011;40925;45.666;18.994;2024-02-26T10:41:01;55.13;;;34.10;;
55025;SDS011;40925;45.666;18.994;2024-02-26T10:43:28;78.68;;;43.38;;
55025;SDS011;40925;45.666;18.994;2024-02-26T10:45:55;40.80;;;27.17;;
55025;SDS011;40925;45.666;18.994;2024-02-26T10:48:21;42.63;;;27.08;;
55025;SDS011;40925;45.666;18.994;2024-02-26T10:50:47;38.17;;;24.95;;
55025;SDS011;40925;45.666;18.994;2024-02-26T10:53:16;34.42;;;23.25;;
55025;SDS011;40925;45.666;18.994;2024-02-26T10:56:06;35.45;;;23.23;;
55025;SDS011;40925;45.666;18.994;2024-02-26T10:58:31;38.60;;;23.80;;
55025;SDS011;40925;45.666;18.994;2024-02-26T11:00:58;53.25;;;38.65;;
55025;SDS011;40925;45.666;18.994;2024-02-26T11:03:27;32.67;;;22.20;;
55025;SDS011;40925;45.666;18.994;2024-02-26T11:05:57;36.92;;;24.67;;
55025;SDS011;40925;45.666;18.994;2024-02-26T11:08:23;35.25;;;24.05;;
55025;SDS011;40925;45.666;18.994;2024-02-26T11:10:52;31.27;;;20.65;;
55025;SDS011;40925;45.666;18.994;2024-02-26T11:13:19;29.55;;;20.67;;
55025;SDS011;40925;45.666;18.994;2024-02-26T11:15:46;26.45;;;17.92;;
55025;SDS011;40925;45.666;18.994;2024-02-26T11:18:16;34.97;;;25.67;;
55025;SDS011;40925;45.666;18.994;2024-02-26T11:20:42;27.52;;;15.43;;
55025;SDS011;40925;45.666;18.994;2024-02-26T11:23:08;35.90;;;23.90;;
55025;SDS011;40925;45.666;18.994;2024-02-26T11:25:35;29.40;;;18.70;;
55025;SDS011;40925;45.666;18.994;2024-02-26T11:28:03;24.52;;;15.75;;
55025;SDS011;40925;45.666;18.994;2024-02-26T11:30:32;26.00;;;18.13;;
55025;SDS011;40925;45.666;18.994;2024-02-26T11:33:01;23.60;;;14.77;;
55025;SDS011;40925;45.666;18.994;2024-02-26T11:35:27;19.67;;;13.70;;
55025;SDS011;40925;45.666;18.994;2024-02-26T11:37:54;55.10;;;30.20;;
55025;SDS011;40925;45.666;18.994;2024-02-26T11:40:24;24.58;;;14.80;;
55025;SDS011;40925;45.666;18.994;2024-02-26T11:42:51;27.08;;;16.15;;
55025;SDS011;40925;45.666;18.994;2024-02-26T11:48:03;18.15;;;11.75;;
55025;SDS011;40925;45.666;18.994;2024-02-26T11:50:35;20.77;;;11.65;;
55025;SDS011;40925;45.666;18.994;2024-02-26T11:53:20;24.63;;;13.65;;
55025;SDS011;40925;45.666;18.994;2024-02-26T11:55:47;25.98;;;17.73;;
55025;SDS011;40925;45.666;18.994;2024-02-26T11:58:14;25.52;;;17.85;;
55025;SDS011;40925;45.666;18.994;2024-02-26T12:00:40;65.15;;;35.85;;
55025;SDS011;40925;45.666;18.994;2024-02-26T12:03:06;50.33;;;28.98;;
55025;SDS011;40925;45.666;18.994;2024-02-26T12:05:33;16.63;;;10.90;;
55025;SDS011;40925;45.666;18.994;2024-02-26T12:08:05;15.00;;;10.02;;
55025;SDS011;40925;45.666;18.994;2024-02-26T12:13:13;17.88;;;10.77;;
55025;SDS011;40925;45.666;18.994;2024-02-26T12:15:41;15.88;;;10.25;;
55025;SDS011;40925;45.666;18.994;2024-02-26T12:18:19;18.48;;;11.38;;
55025;SDS011;40925;45.666;18.994;2024-02-26T12:20:46;15.10;;;10.88;;
55025;SDS011;40925;45.666;18.994;2024-02-26T12:23:15;20.80;;;13.88;;
55025;SDS011;40925;45.666;18.994;2024-02-26T12:25:44;28.30;;;18.52;;
55025;SDS011;40925;45.666;18.994;2024-02-26T12:28:13;19.02;;;11.70;;
55025;SDS011;40925;45.666;18.994;2024-02-26T12:30:40;31.65;;;18.15;;
55025;SDS011;40925;45.666;18.994;2024-02-26T12:33:05;20.05;;;11.90;;
55025;SDS011;40925;45.666;18.994;2024-02-26T12:35:33;19.10;;;11.43;;
55025;SDS011;40925;45.666;18.994;2024-02-26T12:38:00;23.52;;;13.60;;
55025;SDS011;40925;45.666;18.994;2024-02-26T12:40:26;27.70;;;15.57;;
55025;SDS011;40925;45.666;18.994;2024-02-26T12:42:53;20.60;;;12.23;;
55025;SDS011;40925;45.666;18.994;2024-02-26T12:45:20;15.18;;;9.93;;
55025;SDS011;40925;45.666;18.994;2024-02-26T12:47:46;15.23;;;9.75;;
55025;SDS011;40925;45.666;18.994;2024-02-26T12:50:13;17.25;;;12.52;;
55025;SDS011;40925;45.666;18.994;2024-02-26T12:52:40;17.90;;;11.70;;
55025;SDS011;40925;45.666;18.994;2024-02-26T12:55:08;15.23;;;9.60;;
55025;SDS011;40925;45.666;18.994;2024-02-26T12:57:37;13.30;;;9.43;;
55025;SDS011;40925;45.666;18.994;2024-02-26T13:00:06;15.88;;;10.88;;
55025;SDS011;40925;45.666;18.994;2024-02-26T13:02:35;13.65;;;8.90;;
55025;SDS011;40925;45.666;18.994;2024-02-26T13:05:04;16.25;;;9.63;;
55025;SDS011;40925;45.666;18.994;2024-02-26T13:07:32;13.82;;;8.95;;
55025;SDS011;40925;45.666;18.994;2024-02-26T13:09:59;19.50;;;12.15;;
55025;SDS011;40925;45.666;18.994;2024-02-26T13:12:25;17.10;;;12.45;;
55025;SDS011;40925;45.666;18.994;2024-02-26T13:15:01;11.30;;;6.57;;
55025;SDS011;40925;45.666;18.994;2024-02-26T13:17:31;49.10;;;22.05;;
55025;SDS011;40925;45.666;18.994;2024-02-26T13:19:57;12.32;;;7.20;;
55025;SDS011;40925;45.666;18.994;2024-02-26T13:22:22;10.63;;;6.97;;
55025;SDS011;40925;45.666;18.994;2024-02-26T13:24:55;21.65;;;11.57;;
55025;SDS011;40925;45.666;18.994;2024-02-26T13:27:25;15.68;;;9.50;;
55025;SDS011;40925;45.666;18.994;2024-02-26T13:32:37;12.63;;;7.63;;
55025;SDS011;40925;45.666;18.994;2024-02-26T13:35:10;21.63;;;11.45;;
55025;SDS011;40925;45.666;18.994;2024-02-26T13:37:38;13.68;;;8.00;;
55025;SDS011;40925;45.666;18.994;2024-02-26T13:40:08;19.65;;;11.75;;
55025;SDS011;40925;45.666;18.994;2024-02-26T13:42:35;18.77;;;11.57;;
55025;SDS011;40925;45.666;18.994;2024-02-26T13:45:02;59.22;;;28.35;;
55025;SDS011;40925;45.666;18.994;2024-02-26T13:47:28;78.65;;;38.10;;
55025;SDS011;40925;45.666;18.994;2024-02-26T13:49:53;26.80;;;16.60;;
55025;SDS011;40925;45.666;18.994;2024-02-26T13:52:19;13.57;;;7.97;;
55025;SDS011;40925;45.666;18.994;2024-02-26T13:54:45;16.23;;;10.95;;
55025;SDS011;40925;45.666;18.994;2024-02-26T13:57:11;16.08;;;10.30;;
55025;SDS011;40925;45.666;18.994;2024-02-26T13:59:37;12.52;;;8.27;;
55025;SDS011;40925;45.666;18.994;2024-02-26T14:02:07;19.75;;;10.90;;
55025;SDS011;40925;45.666;18.994;2024-02-26T14:04:36;15.27;;;8.98;;
55025;SDS011;40925;45.666;18.994;2024-02-26T14:07:02;14.73;;;9.18;;
55025;SDS011;40925;45.666;18.994;2024-02-26T14:09:29;30.77;;;22.63;;
55025;SDS011;40925;45.666;18.994;2024-02-26T14:11:57;13.88;;;8.40;;